Time;durP1;ratioP1;P1;durP2;ratioP2;P2;SDS_P1;SDS_P2;PMS_P1;PMS_P2;Temp;Humidity;BMP_temperature;BMP_pressure;BME280_temperature;BME280_humidity;BME280_pressure;Samples;Min_cycle;Max_cycle;Signal;HPM_P1;HPM_P2
2023/01/12 00:01:20;;;;;;;6.43;2.78;;;;;;;8.99;89.66;100513.50;4959651;29;20119;-79
2023/01/12 00:03:47;;;;;;;11.15;3.28;;;;;;;8.94;89.84;100502.72;4961040;29;20079;-80
2023/01/12 00:06:13;;;;;;;9.55;3.30;;;;;;;9.01;89.63;100507.31;4957863;29;20055;-80
2023/01/12 00:08:40;;;;;;;12.20;3.47;;;;;;;9.01;89.56;100520.34;4954243;29;20047;-79
2023/01/12 00:11:08;;;;;;;8.38;3.33;;;;;;;8.94;90.03;100512.31;4958014;29;20055;-80
2023/01/12 00:13:35;;;;;;;10.45;3.28;;;;;;;8.95;90.33;100508.75;4958079;29;20093;-80
2023/01/12 00:18:59;;;;;;;9.23;3.60;;;;;;;8.98;90.52;100517.06;4902580;29;20049;-78
2023/01/12 00:21:26;;;;;;;10.90;3.30;;;;;;;8.92;90.87;100509.03;4948978;29;20079;-78
2023/01/12 00:23:53;;;;;;;8.10;3.05;;;;;;;8.91;90.73;100523.88;4961328;29;20139;-79
2023/01/12 00:26:21;;;;;;;6.53;2.67;;;;;;;8.92;91.24;100516.88;4964629;29;20078;-81
2023/01/12 00:28:47;;;;;;;9.98;3.50;;;;;;;8.88;91.40;100515.53;4962240;29;20142;-81
2023/01/12 00:31:14;;;;;;;8.50;3.20;;;;;;;8.86;91.56;100514.84;4962575;29;20090;-79
2023/01/12 00:33:41;;;;;;;10.32;3.35;;;;;;;8.91;91.90;100533.50;4964173;28;20447;-82
2023/01/12 00:36:11;;;;;;;10.23;3.33;;;;;;;8.90;91.51;100531.84;4963070;29;20066;-79
2023/01/12 00:38:38;;;;;;;9.30;3.15;;;;;;;8.93;91.91;100536.78;4959085;29;20055;-80
2023/01/12 00:41:05;;;;;;;11.75;3.35;;;;;;;8.92;91.60;100524.69;4958614;29;20083;-80
2023/01/12 00:46:17;;;;;;;10.60;3.30;;;;;;;8.82;91.81;100509.09;4967086;29;20519;-80
2023/01/12 00:48:44;;;;;;;10.57;3.03;;;;;;;8.87;92.36;100514.72;4964870;29;20082;-80
2023/01/12 00:51:11;;;;;;;7.90;3.20;;;;;;;8.83;92.39;100508.13;4965226;29;20051;-80
2023/01/12 00:53:37;;;;;;;10.93;3.85;;;;;;;8.88;92.71;100508.53;4963745;29;20134;-80
2023/01/12 00:56:05;;;;;;;7.60;3.20;;;;;;;8.78;92.88;100499.94;4944628;29;20075;-78
2023/01/12 00:58:34;;;;;;;13.38;3.95;;;;;;;8.79;93.44;100483.31;4955152;29;20079;-80
2023/01/12 01:01:05;;;;;;;12.75;3.95;;;;;;;8.79;93.66;100504.19;4961991;29;20065;-80
2023/01/12 01:03:31;;;;;;;12.82;3.53;;;;;;;8.77;93.50;100490.47;4960750;29;20551;-78
2023/01/12 01:06:02;;;;;;;11.25;3.90;;;;;;;8.71;93.84;100482.41;4967824;29;20051;-78
2023/01/12 01:08:29;;;;;;;12.80;3.40;;;;;;;8.74;93.79;100497.75;4964223;29;20086;-80
2023/01/12 01:11:02;;;;;;;9.15;3.55;;;;;;;8.78;93.84;100496.50;4962931;29;20055;-80
2023/01/12 01:13:28;;;;;;;15.15;5.80;;;;;;;8.74;94.07;100495.16;4962223;29;20081;-80
2023/01/12 01:15:59;;;;;;;10.52;3.47;;;;;;;8.75;94.01;100497.63;4966813;29;20565;-79
2023/01/12 01:18:25;;;;;;;15.88;3.50;;;;;;;8.69;94.36;100487.75;4964411;29;20082;-80
2023/01/12 01:20:54;;;;;;;9.10;3.70;;;;;;;8.65;94.46;100487.22;5018131;23;20062;-80
2023/01/12 01:23:21;;;;;;;10.63;3.92;;;;;;;8.68;94.55;100488.72;4990187;28;20050;-83
2023/01/12 01:25:48;;;;;;;9.85;3.40;;;;;;;8.68;94.37;100487.91;4990607;28;20047;-81
2023/01/12 01:28:16;;;;;;;9.13;3.95;;;;;;;8.71;94.39;100491.03;4989733;28;20082;-81
2023/01/12 01:30:46;;;;;;;11.95;4.20;;;;;;;8.68;94.30;100491.34;4990678;28;20125;-78
2023/01/12 01:34:18;;;;;;;14.68;4.32;;;;;;;8.76;94.54;100493.22;4994510;28;20206;-82
2023/01/12 01:37:20;;;;;;;8.80;3.15;;;;;;;8.70;94.30;100484.19;4991015;28;20058;-81
2023/01/12 01:47:05;;;;;;;9.95;3.53;;;;;;;8.45;95.10;100456.22;4841424;29;20077;-81
2023/01/12 01:49:42;;;;;;;9.43;3.78;;;;;;;8.51;95.23;100464.25;4955690;28;20055;-81
2023/01/12 01:52:14;;;;;;;12.30;4.35;;;;;;;8.61;94.84;100453.75;4988247;28;20047;-82
2023/01/12 01:54:44;;;;;;;10.95;3.67;;;;;;;8.67;94.86;100463.63;4985606;28;20050;-80
2023/01/12 01:57:15;;;;;;;9.45;3.22;;;;;;;8.71;94.24;100451.09;4984654;28;20474;-80
2023/01/12 01:59:47;;;;;;;12.27;3.40;;;;;;;8.84;94.12;100460.19;4984642;28;20085;-80
2023/01/12 02:02:14;;;;;;;14.68;3.75;;;;;;;8.87;93.66;100440.81;4985379;28;20431;-80
2023/01/12 02:04:40;;;;;;;14.90;3.97;;;;;;;8.92;93.48;100452.47;4985219;28;20133;-80
2023/01/12 02:07:08;;;;;;;11.10;3.90;;;;;;;8.93;93.08;100438.44;4984860;28;20062;-80
2023/01/12 02:09:37;;;;;;;12.20;3.65;;;;;;;8.87;92.46;100423.38;4984294;28;20086;-80
2023/01/12 02:17:52;;;;;;;16.70;4.35;;;;;;;8.96;91.78;100416.44;4964818;29;20582;-80
2023/01/12 02:20:47;;;;;;;13.13;3.80;;;;;;;9.05;91.38;100412.91;4962961;29;20438;-80
2023/01/12 02:23:47;;;;;;;13.02;3.80;;;;;;;9.10;91.16;100412.44;4963359;29;20135;-81
2023/01/12 02:26:46;;;;;;;14.77;3.90;;;;;;;9.03;91.00;100414.84;4966053;29;20057;-80
2023/01/12 02:29:55;;;;;;;14.43;4.28;;;;;;;9.05;91.08;100399.84;4959705;29;20519;-81
2023/01/12 02:32:31;;;;;;;12.23;4.28;;;;;;;9.12;90.50;100394.84;4984179;28;20074;-80
2023/01/12 02:35:11;;;;;;;13.57;3.72;;;;;;;9.15;90.29;100400.59;4986622;28;20105;-80
2023/01/12 02:37:46;;;;;;;12.32;3.97;;;;;;;9.18;90.09;100391.63;4985830;28;20447;-80
2023/01/12 02:40:23;;;;;;;15.40;3.67;;;;;;;9.20;89.96;100402.75;4985322;28;20050;-80
2023/01/12 02:42:58;;;;;;;12.45;3.58;;;;;;;9.26;89.58;100383.84;4983728;28;20047;-81
2023/01/12 02:45:36;;;;;;;12.63;3.72;;;;;;;9.23;89.80;100399.81;4983699;28;20058;-80
2023/01/12 02:48:09;;;;;;;15.80;4.38;;;;;;;9.23;89.79;100397.22;4983761;28;20058;-81
2023/01/12 02:50:46;;;;;;;9.95;3.42;;;;;;;9.20;89.54;100393.13;4983591;28;20150;-81
2023/01/12 02:53:18;;;;;;;13.85;3.45;;;;;;;9.22;89.66;100392.97;4983689;28;20050;-80
2023/01/12 02:55:46;;;;;;;11.38;3.35;;;;;;;9.22;89.60;100401.63;4969322;28;20051;-81
2023/01/12 02:58:17;;;;;;;14.70;3.40;;;;;;;9.21;89.73;100394.75;4974712;28;20106;-81
2023/01/12 03:00:48;;;;;;;10.55;3.50;;;;;;;9.20;90.19;100387.06;4983030;28;20055;-79
2023/01/12 03:03:16;;;;;;;13.40;3.45;;;;;;;9.16;90.93;100383.94;4986817;28;20065;-81
2023/01/12 03:05:43;;;;;;;14.80;3.55;;;;;;;9.10;91.91;100389.78;4988024;28;20050;-81
2023/01/12 03:08:13;;;;;;;9.85;3.35;;;;;;;9.05;92.69;100393.81;4986709;28;20090;-80
2023/01/12 03:10:50;;;;;;;13.27;4.20;;;;;;;9.01;93.23;100392.47;4990734;28;20047;-81
2023/01/12 03:13:20;;;;;;;12.07;3.33;;;;;;;8.93;94.66;100385.44;4987275;28;20051;-79
2023/01/12 03:15:49;;;;;;;10.75;3.47;;;;;;;8.90;95.16;100389.16;4987075;28;20051;-78
2023/01/12 03:18:28;;;;;;;12.80;3.65;;;;;;;8.80;96.00;100380.59;4988397;28;20499;-80
2023/01/12 03:21:00;;;;;;;10.85;3.38;;;;;;;8.76;96.20;100368.81;4988216;28;20055;-81
2023/01/12 03:23:31;;;;;;;9.85;3.30;;;;;;;8.71;96.72;100360.63;4987078;28;20054;-81
2023/01/12 03:26:00;;;;;;;13.90;3.33;;;;;;;8.70;96.92;100358.16;4987842;28;20075;-80
2023/01/12 03:28:32;;;;;;;10.90;3.15;;;;;;;8.72;96.93;100357.03;4986651;28;20055;-80
2023/01/12 03:31:03;;;;;;;13.18;3.45;;;;;;;8.70;97.19;100358.16;4985648;28;20137;-79
2023/01/12 03:33:32;;;;;;;8.82;3.03;;;;;;;8.64;97.38;100357.78;4985699;28;20058;-80
2023/01/12 03:36:07;;;;;;;11.18;3.17;;;;;;;8.68;97.43;100357.50;4965820;29;20133;-79
2023/01/12 03:38:45;;;;;;;7.18;2.90;;;;;;;8.63;98.13;100352.72;4966129;29;20059;-80
2023/01/12 03:41:19;;;;;;;9.63;3.00;;;;;;;8.66;98.46;100347.19;4964593;29;20086;-79
2023/01/12 03:43:50;;;;;;;11.52;3.17;;;;;;;8.62;99.01;100348.47;4966267;29;20133;-79
2023/01/12 03:46:24;;;;;;;6.63;3.30;;;;;;;8.62;99.19;100354.50;4975488;28;20053;-81
2023/01/12 03:48:57;;;;;;;11.75;3.28;;;;;;;8.55;99.85;100366.50;4986474;28;20055;-81
2023/01/12 03:51:27;;;;;;;10.02;2.95;;;;;;;8.51;100.00;100354.72;4985123;28;20062;-80
2023/01/12 03:53:58;;;;;;;14.23;3.45;;;;;;;8.46;100.00;100345.75;4984356;28;20054;-81
2023/01/12 03:56:29;;;;;;;9.10;2.78;;;;;;;8.49;100.00;100335.84;4983576;28;20066;-80
2023/01/12 03:58:56;;;;;;;12.68;3.53;;;;;;;8.50;100.00;100336.66;4984378;28;20232;-80
2023/01/12 04:01:23;;;;;;;9.68;3.40;;;;;;;8.55;100.00;100327.38;4983301;28;20047;-81
2023/01/12 04:03:49;;;;;;;8.05;3.03;;;;;;;8.53;100.00;100336.31;4982916;28;20112;-80
2023/01/12 04:06:17;;;;;;;10.18;2.65;;;;;;;8.55;100.00;100324.78;4980824;28;20110;-79
2023/01/12 04:08:44;;;;;;;10.38;3.08;;;;;;;8.57;100.00;100315.00;4979640;28;20062;-79
2023/01/12 04:13:57;;;;;;;7.15;2.90;;;;;;;8.68;98.68;100307.94;4961306;28;20050;-80
2023/01/12 04:16:27;;;;;;;9.18;3.10;;;;;;;8.61;99.56;100308.53;4985704;28;20245;-81
2023/01/12 04:18:54;;;;;;;9.10;3.25;;;;;;;8.58;99.50;100308.81;4984113;28;20054;-81
2023/01/12 04:24:07;;;;;;;12.30;2.92;;;;;;;8.54;99.85;100294.44;4983095;28;20105;-79
2023/01/12 04:26:34;;;;;;;5.78;2.08;;;;;;;8.53;99.58;100285.00;4983155;28;20090;-80
2023/01/12 04:29:01;;;;;;;4.97;1.65;;;;;;;8.61;99.23;100300.69;4983357;28;20206;-80
2023/01/12 04:31:27;;;;;;;8.57;2.60;;;;;;;8.63;98.57;100285.72;4982663;28;20050;-81
2023/01/12 04:33:54;;;;;;;8.65;2.88;;;;;;;8.68;98.44;100276.63;4981989;28;20508;-80
2023/01/12 04:36:21;;;;;;;4.78;2.08;;;;;;;8.75;98.06;100278.47;4981068;28;20082;-81
2023/01/12 04:38:48;;;;;;;6.38;2.25;;;;;;;8.73;97.94;100277.81;4980105;28;20063;-81
2023/01/12 04:41:15;;;;;;;5.72;2.30;;;;;;;8.70;98.15;100280.72;4980751;28;20086;-80
2023/01/12 04:43:42;;;;;;;6.28;2.05;;;;;;;8.64;98.30;100276.13;4980810;28;20114;-80
2023/01/12 04:46:10;;;;;;;7.68;2.28;;;;;;;8.59;99.46;100275.75;4979652;28;20075;-80
2023/01/12 04:48:38;;;;;;;5.63;2.53;;;;;;;8.50;100.00;100255.81;4979583;28;20089;-80
2023/01/12 04:51:05;;;;;;;5.90;2.20;;;;;;;8.49;100.00;100259.41;4979922;28;20061;-80
2023/01/12 04:53:31;;;;;;;6.25;2.80;;;;;;;8.49;100.00;100262.81;4979690;28;20046;-80
2023/01/12 04:56:03;;;;;;;6.25;2.58;;;;;;;8.46;100.00;100257.09;4963604;28;20047;-81
2023/01/12 04:58:32;;;;;;;5.40;2.08;;;;;;;8.49;100.00;100257.59;4961497;29;20051;-80
2023/01/12 05:01:07;;;;;;;7.00;2.55;;;;;;;8.45;100.00;100243.22;4974796;28;20066;-80
2023/01/12 05:03:35;;;;;;;5.63;2.30;;;;;;;8.44;100.00;100244.19;4979121;28;20137;-79
2023/01/12 05:06:01;;;;;;;9.82;2.20;;;;;;;8.41;100.00;100246.28;4979864;28;20066;-79
2023/01/12 05:11:14;;;;;;;6.03;2.53;;;;;;;8.32;100.00;100235.78;4977859;28;20057;-79
2023/01/12 05:13:40;;;;;;;8.90;2.80;;;;;;;8.34;100.00;100224.41;4977966;28;20050;-80
2023/01/12 05:16:11;;;;;;;7.57;2.40;;;;;;;8.32;100.00;100212.34;4979037;28;20143;-81
2023/01/12 05:18:37;;;;;;;5.88;3.03;;;;;;;8.28;100.00;100208.34;4980466;28;20133;-81
2023/01/12 05:21:05;;;;;;;6.20;2.10;;;;;;;8.21;100.00;100183.03;4982772;28;20065;-81
2023/01/12 05:23:31;;;;;;;10.50;2.42;;;;;;;8.21;100.00;100203.91;4982542;28;20490;-82
2023/01/12 05:25:59;;;;;;;6.60;2.80;;;;;;;8.21;100.00;100202.09;4983135;28;20047;-81
2023/01/12 05:28:32;;;;;;;4.80;1.88;;;;;;;8.18;100.00;100191.16;4982798;28;20078;-81
2023/01/12 05:31:01;;;;;;;;;;;;;;;8.12;100.00;100200.41;4986831;28;20059;-82
2023/01/12 05:33:28;;;;;;;8.35;2.53;;;;;;;8.11;100.00;100196.16;4987091;28;19929;-79
2023/01/12 05:35:55;;;;;;;7.72;2.33;;;;;;;8.13;100.00;100196.00;4989697;28;20078;-80
2023/01/12 05:38:26;;;;;;;6.97;2.30;;;;;;;8.05;100.00;100168.09;4986722;28;20143;-80
2023/01/12 05:40:53;;;;;;;4.30;1.67;;;;;;;8.08;100.00;100165.19;4987594;28;20082;-82
2023/01/12 05:49:39;;;;;;;3.67;1.70;;;;;;;8.01;100.00;100148.53;4988800;28;20399;-79
2023/01/12 05:52:12;;;;;;;3.85;1.95;;;;;;;7.99;100.00;100137.47;4988491;28;20047;-80
2023/01/12 05:54:38;;;;;;;3.70;1.90;;;;;;;7.90;100.00;100130.53;4989429;28;20177;-80
2023/01/12 05:57:05;;;;;;;4.28;1.92;;;;;;;7.99;100.00;100140.88;4989337;28;20051;-81
2023/01/12 05:59:32;;;;;;;4.22;1.55;;;;;;;7.96;100.00;100132.53;4988446;28;20047;-81
2023/01/12 06:01:59;;;;;;;12.70;6.63;;;;;;;8.02;100.00;100131.94;4989058;28;20106;-81
2023/01/12 06:04:26;;;;;;;3.45;1.65;;;;;;;8.06;100.00;100125.44;4988272;28;20081;-81
2023/01/12 06:06:53;;;;;;;5.30;1.58;;;;;;;8.07;100.00;100121.84;4988406;28;20101;-80
2023/01/12 06:09:19;;;;;;;4.40;1.88;;;;;;;8.04;100.00;100109.13;4988151;28;20055;-83
2023/01/12 06:14:30;;;;;;;7.10;1.90;;;;;;;8.03;100.00;100123.16;4988400;28;20117;-82
2023/01/12 06:16:57;;;;;;;5.05;2.13;;;;;;;8.03;100.00;100112.75;4986221;28;20070;-81
2023/01/12 06:19:25;;;;;;;4.80;1.55;;;;;;;8.00;100.00;100107.81;4985041;28;20055;-81
2023/01/12 06:21:54;;;;;;;5.18;1.80;;;;;;;7.96;100.00;100109.09;4986298;28;20074;-84
2023/01/12 06:24:21;;;;;;;3.10;1.20;;;;;;;7.97;100.00;100106.34;4985390;28;20110;-83
2023/01/12 06:27:14;;;;;;;5.00;1.42;;;;;;;7.99;100.00;100108.81;4984002;28;20054;-82
2023/01/12 06:35:47;;;;;;;4.80;1.33;;;;;;;8.03;100.00;100104.91;4979559;28;20395;-81
2023/01/12 06:38:19;;;;;;;3.15;1.45;;;;;;;8.02;100.00;100103.28;4978837;28;20055;-82
2023/01/12 06:41:09;;;;;;;2.60;1.65;;;;;;;8.05;100.00;100107.34;4980800;28;20085;-81
2023/01/12 06:44:12;;;;;;;;;;;;;;;;;;;;;
2023/01/12 06:47:10;;;;;;;4.60;1.33;;;;;;;8.06;100.00;100093.34;4971404;28;20051;-79
2023/01/12 06:49:39;;;;;;;2.08;1.42;;;;;;;7.91;100.00;100080.91;4978810;28;20142;-79
2023/01/12 06:52:13;;;;;;;2.72;1.27;;;;;;;8.09;100.00;100082.63;4980030;28;20050;-79
2023/01/12 06:54:47;;;;;;;7.15;1.83;;;;;;;7.98;100.00;100060.25;4979238;28;20061;-77
2023/01/12 06:57:36;;;;;;;5.65;1.98;;;;;;;8.13;100.00;100068.31;4981703;28;20055;-80
2023/01/12 07:00:54;;;;;;;4.38;1.40;;;;;;;8.19;100.00;100081.56;4979807;28;20047;-81
2023/01/12 07:04:03;;;;;;;6.50;1.83;;;;;;;8.18;100.00;100068.66;4912436;29;20080;-81
2023/01/12 07:06:30;;;;;;;5.60;2.03;;;;;;;8.39;100.00;100073.56;4919587;29;20067;-81
2023/01/12 07:09:04;;;;;;;6.30;1.75;;;;;;;8.32;100.00;100057.69;4955510;29;20102;-79
2023/01/12 07:11:34;;;;;;;4.90;2.05;;;;;;;8.39;100.00;100043.09;4959077;29;20523;-80
2023/01/12 07:14:01;;;;;;;5.57;2.40;;;;;;;8.57;100.00;100066.44;4977747;28;20117;-80
2023/01/12 07:16:42;;;;;;;10.13;2.45;;;;;;;8.48;100.00;100056.97;4978836;28;20050;-80
2023/01/12 07:21:49;;;;;;;6.47;2.28;;;;;;;8.44;100.00;100045.22;4965994;23;20090;-79
2023/01/12 07:24:29;;;;;;;5.80;2.30;;;;;;;8.64;100.00;100068.28;4959542;29;20043;-79
2023/01/12 07:27:24;;;;;;;8.00;2.45;;;;;;;8.61;100.00;100065.16;4960432;28;20102;-80
2023/01/12 07:29:51;;;;;;;6.57;2.75;;;;;;;8.68;100.00;100050.53;4957595;29;20074;-78
2023/01/12 07:32:18;;;;;;;8.15;2.33;;;;;;;8.67;100.00;100056.72;4958141;29;20039;-79
2023/01/12 07:34:44;;;;;;;9.88;2.47;;;;;;;8.74;100.00;100075.97;4982166;23;20051;-77
2023/01/12 07:37:11;;;;;;;4.28;1.70;;;;;;;8.77;100.00;100067.84;4973964;28;20050;-77
2023/01/12 07:39:39;;;;;;;8.70;2.53;;;;;;;8.78;100.00;100066.03;4978278;28;20059;-78
2023/01/12 07:42:23;;;;;;;9.68;2.70;;;;;;;8.87;100.00;100073.75;4996374;28;20086;-79
2023/01/12 07:44:55;;;;;;;4.20;2.13;;;;;;;8.80;100.00;100057.09;4982211;28;20098;-79
2023/01/12 07:47:26;;;;;;;5.43;2.35;;;;;;;8.83;100.00;100075.03;4977996;28;20047;-78
2023/01/12 07:50:05;;;;;;;7.28;2.35;;;;;;;9.12;100.00;100060.75;4977353;28;20055;-78
2023/01/12 07:52:36;;;;;;;8.38;2.72;;;;;;;9.06;100.00;100082.25;4979013;28;20062;-79
2023/01/12 07:55:06;;;;;;;6.72;2.45;;;;;;;8.95;100.00;100065.94;4978103;28;20400;-79
2023/01/12 07:57:36;;;;;;;9.00;2.50;;;;;;;8.85;100.00;100067.06;4974002;28;20050;-78
2023/01/12 08:00:07;;;;;;;4.28;2.30;;;;;;;8.88;100.00;100057.13;4975745;28;20129;-79
2023/01/12 08:02:36;;;;;;;7.30;2.95;;;;;;;8.85;100.00;100075.69;4970630;28;20062;-79
2023/01/12 08:05:05;;;;;;;7.90;2.42;;;;;;;8.87;100.00;100050.28;4976061;28;20077;-81
2023/01/12 08:07:33;;;;;;;6.38;2.40;;;;;;;8.93;100.00;100057.47;4976949;28;20058;-80
2023/01/12 08:10:32;;;;;;;7.55;2.90;;;;;;;8.90;100.00;100070.81;4977563;28;20054;-79
2023/01/12 08:16:42;;;;;;;;;;;;;;;;;;;;;
2023/01/12 08:19:55;;;;;;;5.80;2.10;;;;;;;8.72;100.00;100036.19;4953139;29;20447;-79
2023/01/12 08:29:17;;;;;;;6.32;2.28;;;;;;;8.89;100.00;100050.09;4872581;29;20056;-80
2023/01/12 08:37:38;;;;;;;5.05;2.58;;;;;;;9.17;100.00;100058.47;4962520;28;20067;-79
2023/01/12 08:44:00;;;;;;;3.60;1.87;;;;;;;9.26;100.00;100067.97;4974661;28;20058;-80
2023/01/12 09:00:47;;;;;;;4.88;2.15;;;;;;;9.11;100.00;100053.88;4939659;28;20129;-78
2023/01/12 09:03:48;;;;;;;;;;;;;;;;;;;;;
2023/01/12 09:25:03;;;;;;;;;;;;;;;;;;;;;
2023/01/12 09:27:36;;;;;;;3.13;1.35;;;;;;;9.48;100.00;100109.09;4895638;29;20069;-79
2023/01/12 09:30:06;;;;;;;4.50;1.60;;;;;;;9.52;100.00;100109.59;4895071;29;20055;-80
2023/01/12 09:32:38;;;;;;;3.25;1.80;;;;;;;9.38;100.00;100097.19;4947292;28;20767;-80
2023/01/12 09:35:05;;;;;;;5.95;2.40;;;;;;;9.37;100.00;100098.16;4970882;28;20109;-80
2023/01/12 09:37:42;;;;;;;4.20;1.15;;;;;;;9.51;100.00;100108.78;4967761;28;20054;-81
2023/01/12 09:40:15;;;;;;;4.43;1.38;;;;;;;9.51;100.00;100100.94;4978389;28;20138;-80
2023/01/12 09:48:22;;;;;;;2.28;1.73;;;;;;;9.58;100.00;100133.28;4969140;28;20079;-79
2023/01/12 09:50:56;;;;;;;5.70;1.40;;;;;;;9.60;100.00;100126.09;4967149;28;20142;-79
2023/01/12 09:53:27;;;;;;;7.15;1.75;;;;;;;9.61;100.00;100138.16;4973396;28;20051;-78
2023/01/12 09:56:01;;;;;;;4.28;2.05;;;;;;;9.63;100.00;100130.19;4974575;28;20082;-78
2023/01/12 09:58:38;;;;;;;2.63;1.67;;;;;;;9.61;100.00;100146.00;4965249;29;20089;-78
2023/01/12 10:01:11;;;;;;;3.58;1.80;;;;;;;9.55;100.00;100141.44;4983455;28;20535;-79
2023/01/12 10:03:38;;;;;;;;;;;;;;;9.61;100.00;100142.56;4989983;28;20043;-79
2023/01/12 10:06:07;;;;;;;5.72;2.33;;;;;;;9.67;100.00;100148.97;4969078;28;19962;-79
2023/01/12 10:08:44;;;;;;;4.22;1.95;;;;;;;9.65;100.00;100147.31;4973815;28;20042;-79
2023/01/12 10:11:16;;;;;;;4.05;2.22;;;;;;;9.61;100.00;100139.97;4968309;28;20111;-79
2023/01/12 10:14:23;;;;;;;3.47;2.08;;;;;;;9.70;100.00;100157.28;4969984;28;20054;-79
2023/01/12 10:17:04;;;;;;;4.90;2.08;;;;;;;9.73;100.00;100148.31;4972475;28;20566;-78
2023/01/12 10:19:39;;;;;;;5.10;1.60;;;;;;;9.75;100.00;100141.94;4966627;28;20209;-79
2023/01/12 10:22:36;;;;;;;4.15;1.75;;;;;;;9.75;100.00;100146.34;4966011;28;20055;-78
2023/01/12 10:25:14;;;;;;;4.57;2.05;;;;;;;9.80;100.00;100164.97;4974582;28;20058;-78
2023/01/12 10:27:43;;;;;;;4.93;1.58;;;;;;;9.86;100.00;100157.31;4975122;28;20066;-78
2023/01/12 10:30:13;;;;;;;4.72;1.58;;;;;;;9.92;100.00;100163.69;4973343;28;20047;-77
2023/01/12 10:32:40;;;;;;;4.13;1.45;;;;;;;9.96;100.00;100157.94;4971193;28;20119;-78
2023/01/12 10:35:14;;;;;;;2.80;1.38;;;;;;;10.03;100.00;100160.72;4969153;28;20058;-78
2023/01/12 10:37:45;;;;;;;6.57;1.83;;;;;;;10.06;100.00;100165.63;4968059;28;20047;-79
2023/01/12 10:40:23;;;;;;;1.52;1.15;;;;;;;10.12;100.00;100154.50;4965482;28;20074;-78
2023/01/12 10:45:42;;;;;;;2.33;1.90;;;;;;;10.16;100.00;100152.38;4978509;28;20058;-79
2023/01/12 10:48:21;;;;;;;3.22;2.00;;;;;;;10.21;100.00;100169.25;4969733;28;20071;-80
2023/01/12 10:50:58;;;;;;;3.08;1.50;;;;;;;10.18;100.00;100161.69;4969235;28;20483;-79
2023/01/12 10:53:30;;;;;;;6.13;2.05;;;;;;;10.27;100.00;100167.78;4964916;28;20059;-80
2023/01/12 10:56:01;;;;;;;3.83;1.42;;;;;;;10.30;100.00;100157.81;4975588;28;20719;-79
2023/01/12 10:58:31;;;;;;;2.33;1.38;;;;;;;10.30;100.00;100147.34;4986154;28;20047;-79
2023/01/12 11:00:58;;;;;;;5.07;2.05;;;;;;;10.38;100.00;100159.59;4981240;28;20043;-80
2023/01/12 11:03:32;;;;;;;3.50;1.77;;;;;;;10.40;100.00;100151.59;4979841;28;20063;-80
2023/01/12 11:06:25;;;;;;;1.58;0.90;;;;;;;10.38;100.00;100164.00;4980197;28;20142;-80
2023/01/12 11:08:52;;;;;;;;;;;;;;;10.36;100.00;100140.63;4977536;28;20066;-81
2023/01/12 11:11:26;;;;;;;5.03;1.60;;;;;;;10.36;100.00;100155.50;4979987;28;20340;-80
2023/01/12 11:13:56;;;;;;;2.25;1.38;;;;;;;10.43;100.00;100156.47;4978539;28;20062;-79
2023/01/12 11:16:24;;;;;;;3.40;1.10;;;;;;;10.36;100.00;100134.59;4982987;28;20507;-81
2023/01/12 11:19:02;;;;;;;4.18;1.27;;;;;;;10.43;100.00;100151.22;4988817;28;20047;-80
2023/01/12 11:21:34;;;;;;;3.08;1.15;;;;;;;10.48;100.00;100156.78;4977882;28;20087;-80
2023/01/12 11:24:05;;;;;;;3.80;1.67;;;;;;;10.53;100.00;100152.69;4976237;28;20046;-79
2023/01/12 11:26:43;;;;;;;3.72;1.38;;;;;;;10.57;99.98;100155.78;4974650;28;20059;-81
2023/01/12 11:29:26;;;;;;;2.13;1.08;;;;;;;10.53;100.00;100154.47;4975367;28;20130;-80
2023/01/12 11:31:54;;;;;;;;;;;;;;;10.57;99.73;100153.97;4975062;28;20566;-79
2023/01/12 11:34:28;;;;;;;2.35;1.17;;;;;;;10.56;99.65;100156.75;4970659;28;20001;-80
2023/01/12 11:37:03;;;;;;;3.60;1.63;;;;;;;10.56;99.33;100154.97;4979916;28;20110;-80
2023/01/12 11:39:31;;;;;;;1.85;1.33;;;;;;;10.62;99.25;100143.00;4976792;28;20047;-79
2023/01/12 11:44:51;;;;;;;2.70;1.55;;;;;;;10.70;99.21;100136.94;4974241;28;20534;-80
2023/01/12 11:47:21;;;;;;;6.10;1.70;;;;;;;10.70;98.48;100143.00;4970509;28;20082;-80
2023/01/12 11:49:55;;;;;;;5.05;1.27;;;;;;;10.71;98.87;100131.53;4968167;28;20054;-80
2023/01/12 11:52:25;;;;;;;5.38;1.90;;;;;;;10.68;98.76;100128.44;4978860;28;20078;-80
2023/01/12 11:54:51;;;;;;;3.58;1.65;;;;;;;10.71;98.76;100134.16;4960400;29;20122;-80
2023/01/12 11:57:45;;;;;;;4.70;1.50;;;;;;;10.72;99.08;100122.72;4976250;28;20114;-80
2023/01/12 12:00:29;;;;;;;2.75;1.52;;;;;;;10.73;98.46;100132.19;4967664;28;20129;-80
2023/01/12 12:03:06;;;;;;;3.08;1.60;;;;;;;10.76;98.59;100126.63;4976687;28;20137;-79
2023/01/12 12:05:46;;;;;;;3.30;1.55;;;;;;;10.74;98.90;100130.38;4977376;28;20086;-79
2023/01/12 12:08:26;;;;;;;7.05;1.52;;;;;;;10.72;98.99;100124.50;4976832;28;20043;-78
2023/01/12 12:10:59;;;;;;;4.72;1.17;;;;;;;10.67;99.28;100101.47;4976687;28;20082;-77
2023/01/12 12:13:35;;;;;;;3.47;1.48;;;;;;;10.71;99.15;100120.25;4974112;28;20086;-78
2023/01/12 12:16:17;;;;;;;1.95;1.05;;;;;;;10.76;99.11;100110.91;4972702;28;20074;-78
2023/01/12 12:18:56;;;;;;;2.72;1.33;;;;;;;10.75;99.17;100118.94;4969286;28;20054;-78
2023/01/12 12:21:43;;;;;;;3.05;1.35;;;;;;;10.70;99.77;100126.47;4971138;28;20050;-79
2023/01/12 12:24:25;;;;;;;4.07;1.05;;;;;;;10.73;99.62;100120.91;4975666;28;20137;-79
2023/01/12 12:26:58;;;;;;;4.43;1.08;;;;;;;10.71;100.00;100115.84;4976049;28;20042;-79
2023/01/12 12:29:44;;;;;;;2.00;1.10;;;;;;;10.73;100.00;100120.91;4975671;28;20071;-80
2023/01/12 12:32:29;;;;;;;2.83;1.30;;;;;;;10.60;100.00;100098.69;4980034;28;20113;-81
2023/01/12 12:35:29;;;;;;;3.80;1.27;;;;;;;10.62;100.00;100111.63;4983311;28;20054;-81
2023/01/12 12:38:18;;;;;;;2.65;1.38;;;;;;;10.55;100.00;100098.38;4969107;28;20051;-79
2023/01/12 12:58:06;;;;;;;2.85;1.30;;;;;;;10.22;100.00;100061.06;5230976;23;20067;-79
2023/01/12 13:00:55;;;;;;;2.40;0.98;;;;;;;10.21;100.00;100054.22;4925756;28;20078;-79
2023/01/12 13:17:46;;;;;;;0.80;0.80;;;;;;;10.27;100.00;100066.63;4952258;29;20066;-80
2023/01/12 13:24:51;;;;;;;2.30;1.23;;;;;;;10.47;100.00;100087.13;4771854;30;20048;-80
2023/01/12 13:28:10;;;;;;;1.67;0.80;;;;;;;10.45;100.00;100091.72;4731393;30;20082;-80
2023/01/12 13:30:50;;;;;;;1.77;1.05;;;;;;;10.27;100.00;100057.94;4811837;29;20058;-81
2023/01/12 13:33:24;;;;;;;1.30;0.73;;;;;;;10.50;100.00;100073.72;4812181;29;20105;-81
2023/01/12 13:36:09;;;;;;;1.20;1.10;;;;;;;10.46;100.00;100082.88;4986485;23;20596;-82
2023/01/12 13:38:58;;;;;;;1.05;0.70;;;;;;;10.53;100.00;100094.31;4951698;29;20052;-81
2023/01/12 13:44:23;;;;;;;2.70;1.15;;;;;;;10.65;100.00;100082.50;4989593;28;20538;-81
2023/01/12 13:46:53;;;;;;;1.08;0.60;;;;;;;10.64;100.00;100080.88;4988803;28;20448;-82
2023/01/12 13:49:26;;;;;;;1.02;0.90;;;;;;;10.66;100.00;100078.09;4987780;28;20137;-82
2023/01/12 13:51:57;;;;;;;1.80;0.80;;;;;;;10.67;100.00;100090.19;4988354;28;20046;-81
2023/01/12 13:54:24;;;;;;;1.40;0.80;;;;;;;10.61;100.00;100086.44;4978560;28;20082;-81
2023/01/12 13:56:55;;;;;;;3.13;1.05;;;;;;;10.67;99.71;100100.66;4964408;29;20051;-81
2023/01/12 13:59:24;;;;;;;2.42;0.90;;;;;;;10.70;99.45;100095.06;4965397;29;20668;-82
2023/01/12 14:01:52;;;;;;;2.85;1.42;;;;;;;10.72;99.26;100091.31;4962426;28;20067;-83
2023/01/12 14:04:45;;;;;;;1.02;0.63;;;;;;;10.71;98.82;100089.69;4965234;29;20043;-82
2023/01/12 14:07:21;;;;;;;2.58;0.65;;;;;;;10.71;99.07;100089.69;4950883;29;20051;-81
2023/01/12 14:10:00;;;;;;;2.22;1.10;;;;;;;10.74;98.65;100081.47;4966141;28;20053;-83
2023/01/12 14:12:48;;;;;;;2.30;1.40;;;;;;;10.73;98.48;100079.84;4963482;29;20047;-82
2023/01/12 14:18:22;;;;;;;2.10;1.13;;;;;;;10.75;98.48;100077.88;4969506;28;20057;-81
2023/01/12 14:20:50;;;;;;;2.58;0.98;;;;;;;10.72;98.57;100086.06;4973494;28;20090;-82
2023/01/12 14:23:21;;;;;;;2.17;1.00;;;;;;;10.65;98.43;100082.50;4976211;28;20087;-83
2023/01/12 14:26:05;;;;;;;1.85;0.90;;;;;;;10.68;99.32;100076.94;4974662;28;20046;-82
2023/01/12 14:28:32;;;;;;;2.20;1.27;;;;;;;10.65;99.31;100077.28;4966195;29;20067;-83
2023/01/12 14:31:01;;;;;;;4.47;1.52;;;;;;;10.59;99.75;100072.72;4968957;28;20090;-83
2023/01/12 14:33:31;;;;;;;2.10;1.33;;;;;;;10.56;100.00;100058.16;4972697;28;20055;-81